createdAt,value
2019-02-16T00:00:44.760Z,23.97
2019-02-16T00:02:48.466Z,28.43
2019-02-16T00:04:52.153Z,24.10
2019-02-16T00:06:55.860Z,26.23
2019-02-16T00:08:59.534Z,22.47
2019-02-16T00:11:03.225Z,31.67
2019-02-16T00:13:06.900Z,24.50
2019-02-16T00:15:10.570Z,23.37
2019-02-16T00:17:14.354Z,25.43
2019-02-16T00:19:18.114Z,22.37
2019-02-16T00:21:21.834Z,22.27
2019-02-16T00:23:25.514Z,23.80
2019-02-16T00:25:29.207Z,26.37
2019-02-16T00:27:32.851Z,27.23
2019-02-16T00:29:36.542Z,25.37
2019-02-16T00:31:40.278Z,23.37
2019-02-16T00:33:44.035Z,24.47
2019-02-16T00:35:48.150Z,24.00
2019-02-16T00:37:51.891Z,21.27
2019-02-16T00:39:55.551Z,25.93
2019-02-16T00:41:59.244Z,24.33
2019-02-16T00:44:02.914Z,27.10
2019-02-16T00:46:06.681Z,23.83
2019-02-16T00:48:10.362Z,22.80
2019-02-16T00:50:14.036Z,25.30
2019-02-16T00:52:17.841Z,24.87
2019-02-16T00:54:21.510Z,22.33
2019-02-16T00:56:25.207Z,24.73
2019-02-16T00:58:28.868Z,25.17
2019-02-16T01:00:32.538Z,24.33
2019-02-16T01:02:36.226Z,28.97
2019-02-16T01:04:39.893Z,30.00
2019-02-16T01:06:43.565Z,24.10
2019-02-16T01:08:47.252Z,24.67
2019-02-16T01:10:50.925Z,26.00
2019-02-16T01:12:54.656Z,24.33
2019-02-16T01:14:58.327Z,27.17
2019-02-16T01:17:02.062Z,28.07
2019-02-16T01:19:05.821Z,25.20
2019-02-16T01:21:09.490Z,28.63
2019-02-16T01:23:13.174Z,26.47
2019-02-16T01:25:16.828Z,25.30
2019-02-16T01:27:20.863Z,24.43
2019-02-16T01:29:24.548Z,23.13
2019-02-16T01:31:28.229Z,23.80
2019-02-16T01:33:31.894Z,22.07
2019-02-16T01:35:35.574Z,24.50
2019-02-16T01:37:39.262Z,27.23
2019-02-16T01:39:42.923Z,22.00
2019-02-16T01:41:47.561Z,25.10
2019-02-16T01:43:51.867Z,23.10
2019-02-16T01:45:55.650Z,24.50
2019-02-16T01:47:59.319Z,20.90
2019-02-16T01:50:03.035Z,26.17
2019-02-16T01:52:06.709Z,22.77
2019-02-16T01:54:10.396Z,23.53
2019-02-16T01:56:14.054Z,21.37
2019-02-16T01:58:17.762Z,28.90
2019-02-16T02:00:21.460Z,25.40
2019-02-16T02:02:25.132Z,23.53
2019-02-16T02:04:28.975Z,23.40
2019-02-16T02:06:32.652Z,25.10
2019-02-16T02:08:36.344Z,25.13
2019-02-16T02:10:40.033Z,23.00
2019-02-16T02:12:43.688Z,23.53
2019-02-16T02:14:47.398Z,24.00
2019-02-16T02:16:51.061Z,24.73
2019-02-16T02:18:54.774Z,22.37
2019-02-16T02:20:58.468Z,22.17
2019-02-16T02:23:02.204Z,26.80
2019-02-16T02:25:08.703Z,24.47
2019-02-16T02:27:12.386Z,21.20
2019-02-16T02:29:16.080Z,20.00
2019-02-16T02:31:19.750Z,23.77
2019-02-16T02:33:23.418Z,21.70
2019-02-16T02:35:27.103Z,18.00
2019-02-16T02:37:30.769Z,20.80
2019-02-16T02:39:34.447Z,22.13
2019-02-16T02:41:38.134Z,21.23
2019-02-16T02:43:41.802Z,20.73
2019-02-16T02:45:45.487Z,24.00
2019-02-16T02:47:49.944Z,22.77
2019-02-16T02:49:53.634Z,20.33
2019-02-16T02:51:57.330Z,20.73
2019-02-16T02:54:01.035Z,19.87
2019-02-16T02:56:04.826Z,18.93
2019-02-16T02:58:08.573Z,19.80
2019-02-16T03:00:12.292Z,17.63
2019-02-16T03:02:16.050Z,20.37
2019-02-16T03:04:19.722Z,19.17
2019-02-16T03:06:23.415Z,20.13
2019-02-16T03:08:27.279Z,19.17
2019-02-16T03:10:30.951Z,19.80
2019-02-16T03:12:34.646Z,20.00
2019-02-16T03:14:38.303Z,19.57
2019-02-16T03:16:41.986Z,20.83
2019-02-16T03:18:45.650Z,21.03
2019-02-16T03:20:49.359Z,20.03
2019-02-16T03:23:18.082Z,17.50
2019-02-16T03:25:21.763Z,19.70
2019-02-16T03:27:34.403Z,18.40
2019-02-16T03:29:49.468Z,22.37
2019-02-16T03:32:04.773Z,18.47
2019-02-16T03:34:17.478Z,18.63
2019-02-16T03:36:43.202Z,19.50
2019-02-16T03:38:58.388Z,20.93
2019-02-16T03:41:02.130Z,20.53
2019-02-16T03:43:05.812Z,19.83
2019-02-16T03:45:09.473Z,21.20
2019-02-16T03:47:13.154Z,22.00
2019-02-16T03:49:16.814Z,25.50
2019-02-16T03:51:20.490Z,20.40
2019-02-16T03:53:24.169Z,20.73
2019-02-16T03:55:27.854Z,20.27
2019-02-16T03:57:31.547Z,20.20
2019-02-16T03:59:35.332Z,19.70
2019-02-16T04:01:38.999Z,19.77
2019-02-16T04:03:42.696Z,20.07
2019-02-16T04:05:49.094Z,18.87
2019-02-16T04:07:53.102Z,19.87
2019-02-16T04:09:56.812Z,20.33
2019-02-16T04:12:02.042Z,23.23
2019-02-16T04:14:05.735Z,21.30
2019-02-16T04:16:09.404Z,20.80
2019-02-16T04:18:13.087Z,22.57
2019-02-16T04:20:16.752Z,18.83
2019-02-16T04:22:24.736Z,19.67
2019-02-16T04:24:25.966Z,22.33
2019-02-16T04:26:29.660Z,21.10
2019-02-16T04:28:33.342Z,19.90
2019-02-16T04:30:37.017Z,19.07
2019-02-16T04:32:40.699Z,19.87
2019-02-16T04:34:44.395Z,16.73
2019-02-16T04:36:48.063Z,18.07
2019-02-16T04:38:51.766Z,20.93
2019-02-16T04:40:55.456Z,22.50
2019-02-16T04:42:59.152Z,20.80
2019-02-16T04:45:02.954Z,19.50
2019-02-16T04:47:06.628Z,18.40
2019-02-16T04:49:10.633Z,20.23
2019-02-16T04:51:14.336Z,20.33
2019-02-16T04:53:17.994Z,21.80
2019-02-16T04:55:21.686Z,22.27
2019-02-16T04:57:25.353Z,20.83
2019-02-16T04:59:29.045Z,18.13
2019-02-16T05:01:32.731Z,20.03
2019-02-16T05:03:36.395Z,16.50
2019-02-16T05:05:40.086Z,18.07
2019-02-16T05:07:43.870Z,17.23
2019-02-16T05:09:47.536Z,21.07
2019-02-16T05:11:51.224Z,18.03
2019-02-16T05:13:54.883Z,19.07
2019-02-16T05:15:58.583Z,20.20
2019-02-16T05:18:02.245Z,18.13
2019-02-16T05:20:06.903Z,16.60
2019-02-16T05:22:10.626Z,20.10
2019-02-16T05:24:14.293Z,20.43
2019-02-16T05:26:18.030Z,21.47
2019-02-16T05:28:21.675Z,21.67
2019-02-16T05:30:25.438Z,20.47
2019-02-16T05:32:29.119Z,22.90
2019-02-16T05:34:32.989Z,17.93
2019-02-16T05:36:36.672Z,18.67
2019-02-16T05:38:40.492Z,18.27
2019-02-16T05:40:44.164Z,18.07
2019-02-16T05:42:48.157Z,21.87
2019-02-16T05:44:51.889Z,17.17
2019-02-16T05:46:55.585Z,21.37
2019-02-16T05:48:59.270Z,21.00
2019-02-16T05:51:02.956Z,21.50
2019-02-16T05:53:06.671Z,24.13
2019-02-16T05:55:10.395Z,20.50
2019-02-16T05:57:14.127Z,25.40
2019-02-16T05:59:17.794Z,21.33
2019-02-16T06:01:21.513Z,21.17
2019-02-16T06:03:25.165Z,21.77
2019-02-16T06:05:30.412Z,21.93
2019-02-16T06:07:34.102Z,22.93
2019-02-16T06:09:37.756Z,18.93
2019-02-16T06:11:41.427Z,27.50
2019-02-16T06:13:45.114Z,22.50
2019-02-16T06:15:48.798Z,21.07
2019-02-16T06:17:52.485Z,18.80
2019-02-16T06:19:56.135Z,19.00
2019-02-16T06:21:59.994Z,21.47
2019-02-16T06:24:03.660Z,20.43
2019-02-16T06:26:07.331Z,26.63
2019-02-16T06:28:11.029Z,21.83
2019-02-16T06:30:14.684Z,19.40
2019-02-16T06:32:18.395Z,20.30
2019-02-16T06:34:22.062Z,23.57
2019-02-16T06:36:27.307Z,20.77
2019-02-16T06:38:30.995Z,22.83
2019-02-16T06:40:34.683Z,21.67
2019-02-16T06:42:38.447Z,20.03
2019-02-16T06:44:42.114Z,21.40
2019-02-16T06:46:45.767Z,20.97
2019-02-16T06:48:49.453Z,21.40
2019-02-16T06:50:53.315Z,23.40
2019-02-16T06:52:57.013Z,21.30
2019-02-16T06:55:00.998Z,21.80
2019-02-16T06:57:06.308Z,21.30
2019-02-16T06:59:09.982Z,23.47
2019-02-16T07:01:13.652Z,22.50
2019-02-16T07:03:17.332Z,22.20
2019-02-16T07:05:21.003Z,23.10
2019-02-16T07:07:24.777Z,23.40
2019-02-16T07:09:28.467Z,29.43
2019-02-16T07:11:32.138Z,29.77
2019-02-16T07:13:35.826Z,39.77
2019-02-16T07:15:39.554Z,32.80
2019-02-16T07:17:44.837Z,37.93
2019-02-16T07:19:50.337Z,31.33
2019-02-16T07:21:54.000Z,28.97
2019-02-16T07:23:57.703Z,33.70
2019-02-16T07:26:01.366Z,29.20
2019-02-16T07:28:05.036Z,32.87
2019-02-16T07:30:11.346Z,33.57
2019-02-16T07:32:14.998Z,27.30
2019-02-16T07:34:18.694Z,28.60
2019-02-16T07:36:22.365Z,29.47
2019-02-16T07:38:26.019Z,24.33
2019-02-16T07:40:29.726Z,26.87
2019-02-16T07:42:52.435Z,26.37
2019-02-16T07:44:57.706Z,28.13
2019-02-16T07:47:15.029Z,22.93
2019-02-16T07:49:23.306Z,26.87
2019-02-16T07:51:32.388Z,27.60
2019-02-16T07:53:49.987Z,22.83
2019-02-16T07:55:58.135Z,29.73
2019-02-16T07:58:08.854Z,32.63
2019-02-16T08:00:14.106Z,26.00
2019-02-16T08:02:19.359Z,24.77
2019-02-16T08:04:40.699Z,25.07
2019-02-16T08:07:01.030Z,30.97
2019-02-16T08:09:06.958Z,34.83
2019-02-16T08:11:23.943Z,33.97
2019-02-16T08:13:31.683Z,35.20
2019-02-16T08:15:53.217Z,27.93
2019-02-16T08:18:01.183Z,30.70
2019-02-16T08:20:22.068Z,28.27
2019-02-16T08:22:36.240Z,31.07
2019-02-16T08:24:44.231Z,29.60
2019-02-16T08:26:58.439Z,29.43
2019-02-16T08:29:12.247Z,26.63
2019-02-16T08:31:17.535Z,30.70
2019-02-16T08:33:22.770Z,27.77
2019-02-16T08:35:34.180Z,31.63
2019-02-16T08:37:44.897Z,35.80
2019-02-16T08:39:52.839Z,35.87
2019-02-16T08:42:00.523Z,33.10
2019-02-16T08:44:23.999Z,33.40
2019-02-16T08:46:37.969Z,31.73
2019-02-16T08:48:52.216Z,32.53
2019-02-16T08:50:57.437Z,34.00
2019-02-16T08:53:05.592Z,32.80
2019-02-16T08:55:23.022Z,39.60
2019-02-16T08:57:28.525Z,36.13
2019-02-16T08:59:36.256Z,34.00
2019-02-16T09:01:50.309Z,33.40
2019-02-16T09:03:55.562Z,32.13
2019-02-16T09:06:06.755Z,33.37
2019-02-16T09:08:12.019Z,34.47
2019-02-16T09:10:19.678Z,34.13
2019-02-16T09:12:33.923Z,37.00
2019-02-16T09:14:51.095Z,35.80
2019-02-16T09:16:56.334Z,39.07
2019-02-16T09:19:07.458Z,33.93
2019-02-16T09:21:18.267Z,33.00
2019-02-16T09:23:26.146Z,37.40
2019-02-16T09:25:37.345Z,37.57
2019-02-16T09:27:45.302Z,35.37
2019-02-16T09:29:53.625Z,35.80
2019-02-16T09:32:04.865Z,38.90
2019-02-16T09:34:21.919Z,37.77
2019-02-16T09:36:39.170Z,35.60
2019-02-16T09:38:50.270Z,39.73
2019-02-16T09:41:04.141Z,38.83
2019-02-16T09:43:24.287Z,32.57
2019-02-16T09:45:35.501Z,37.33
2019-02-16T09:47:49.618Z,33.07
2019-02-16T09:49:54.914Z,32.50
2019-02-16T09:52:00.134Z,33.00
2019-02-16T09:54:21.341Z,33.90
2019-02-16T09:56:26.596Z,35.80
2019-02-16T09:58:47.892Z,35.23
2019-02-16T10:01:08.111Z,32.80
2019-02-16T10:03:13.358Z,39.93
2019-02-16T10:05:34.962Z,36.33
2019-02-16T10:07:55.432Z,36.53
2019-02-16T10:10:00.851Z,39.03
2019-02-16T10:12:11.762Z,36.87
2019-02-16T10:14:17.000Z,32.60
2019-02-16T10:16:25.107Z,48.60
2019-02-16T10:18:42.209Z,40.10
2019-02-16T10:20:47.473Z,38.07
2019-02-16T10:23:08.783Z,41.17
2019-02-16T10:25:16.508Z,37.00
2019-02-16T10:27:24.329Z,38.60
2019-02-16T10:29:35.512Z,36.93
2019-02-16T10:31:43.949Z,38.87
2019-02-16T10:33:49.222Z,41.43
2019-02-16T10:36:03.194Z,37.37
2019-02-16T10:38:23.496Z,39.40
2019-02-16T10:40:43.680Z,41.23
2019-02-16T10:42:57.970Z,36.20
2019-02-16T10:45:05.631Z,36.03
2019-02-16T10:47:10.911Z,40.17
2019-02-16T10:49:25.453Z,37.27
2019-02-16T10:51:42.179Z,35.13
2019-02-16T10:53:50.039Z,40.33
2019-02-16T10:55:55.319Z,40.57
2019-02-16T10:58:06.335Z,36.93
2019-02-16T11:00:27.766Z,35.27
2019-02-16T11:02:33.127Z,38.47
2019-02-16T11:04:40.947Z,35.80
2019-02-16T11:06:57.899Z,36.73
2019-02-16T11:09:06.038Z,42.43
2019-02-16T11:11:29.378Z,47.13
2019-02-16T11:13:49.621Z,43.30
2019-02-16T11:15:57.723Z,43.77
2019-02-16T11:18:14.634Z,39.43
2019-02-16T11:20:25.895Z,41.07
2019-02-16T11:22:37.029Z,41.43
2019-02-16T11:24:57.430Z,40.50
2019-02-16T11:27:02.652Z,42.30
2019-02-16T11:29:14.169Z,41.83
2019-02-16T11:31:28.299Z,41.73
2019-02-16T11:33:33.538Z,38.63
2019-02-16T11:35:44.718Z,40.63
2019-02-16T11:37:49.966Z,39.63
2019-02-16T11:40:00.874Z,43.47
2019-02-16T11:42:06.251Z,41.63
2019-02-16T11:44:11.535Z,45.57
2019-02-16T11:46:19.351Z,43.37
2019-02-16T11:48:24.654Z,43.67
2019-02-16T11:50:39.087Z,41.17
2019-02-16T11:52:47.042Z,42.50
2019-02-16T11:55:04.268Z,42.13
2019-02-16T11:57:24.274Z,42.87
2019-02-16T11:59:29.520Z,40.40
2019-02-16T12:01:34.798Z,40.50
2019-02-16T12:03:51.988Z,42.30
2019-02-16T12:05:57.270Z,43.00
2019-02-16T12:08:05.346Z,43.63
2019-02-16T12:10:10.687Z,41.97
2019-02-16T12:12:18.477Z,41.57
2019-02-16T12:14:35.813Z,42.80
2019-02-16T12:16:46.697Z,42.43
2019-02-16T12:19:09.898Z,42.33
2019-02-16T12:21:21.114Z,42.67
2019-02-16T12:23:31.959Z,40.57
2019-02-16T12:25:49.028Z,44.07
2019-02-16T12:27:59.896Z,46.07
2019-02-16T12:30:22.104Z,46.27
2019-02-16T12:32:33.424Z,43.70
2019-02-16T12:34:44.273Z,42.83
2019-02-16T12:36:52.050Z,47.80
2019-02-16T12:39:04.809Z,42.40
2019-02-16T12:41:07.407Z,44.27
2019-02-16T12:43:15.407Z,47.30
2019-02-16T12:45:35.642Z,43.43
2019-02-16T12:47:40.913Z,50.57
2019-02-16T12:49:54.834Z,50.27
2019-02-16T12:52:03.387Z,47.63
2019-02-16T12:54:23.731Z,49.77
2019-02-16T12:56:37.753Z,45.10
2019-02-16T12:58:46.012Z,45.90
2019-02-16T13:00:51.260Z,48.97
2019-02-16T13:03:02.194Z,46.40
2019-02-16T13:05:13.965Z,50.33
2019-02-16T13:07:22.027Z,44.80
2019-02-16T13:09:36.345Z,51.23
2019-02-16T13:11:41.633Z,50.53
2019-02-16T13:13:55.672Z,44.43
2019-02-16T13:16:03.627Z,48.43
2019-02-16T13:18:08.906Z,47.03
2019-02-16T13:20:29.052Z,44.80
2019-02-16T13:22:34.287Z,49.40
2019-02-16T13:24:51.702Z,45.87
2019-02-16T13:27:13.405Z,44.83
2019-02-16T13:29:18.658Z,47.10
2019-02-16T13:31:32.564Z,46.23
2019-02-16T13:33:37.842Z,49.83
2019-02-16T13:35:59.179Z,49.13
2019-02-16T13:38:16.475Z,46.50
2019-02-16T13:40:21.710Z,42.33
2019-02-16T13:42:26.943Z,51.47
2019-02-16T13:44:38.212Z,43.47
2019-02-16T13:46:46.467Z,46.27
2019-02-16T13:48:54.582Z,42.67
2019-02-16T13:51:17.783Z,49.90
2019-02-16T13:53:37.904Z,44.27
2019-02-16T13:55:46.010Z,45.03
2019-02-16T13:57:51.246Z,42.83
2019-02-16T14:00:11.562Z,44.80
2019-02-16T14:02:16.910Z,49.13
2019-02-16T14:04:22.170Z,43.13
2019-02-16T14:06:33.416Z,43.87
2019-02-16T14:08:41.149Z,44.20
2019-02-16T14:11:03.633Z,42.50
2019-02-16T14:13:08.875Z,44.67
2019-02-16T14:15:14.137Z,41.40
2019-02-16T14:17:19.358Z,43.73
2019-02-16T14:19:23.265Z,43.33
2019-02-16T14:21:26.958Z,41.47
2019-02-16T14:23:30.621Z,42.83
2019-02-16T14:25:44.842Z,44.33
2019-02-16T14:27:47.121Z,43.83
2019-02-16T14:29:51.623Z,43.70
2019-02-16T14:31:55.618Z,44.33
2019-02-16T14:34:00.002Z,43.07
2019-02-16T14:36:03.711Z,40.97
2019-02-16T14:38:08.951Z,40.23
2019-02-16T14:40:12.757Z,41.20
2019-02-16T14:42:16.416Z,44.73
2019-02-16T14:44:20.102Z,41.53
2019-02-16T14:46:23.873Z,49.53
2019-02-16T14:48:27.531Z,49.10
2019-02-16T14:50:31.193Z,46.43
2019-02-16T14:52:34.918Z,46.20
2019-02-16T14:54:38.564Z,41.90
2019-02-16T14:56:42.248Z,47.37
2019-02-16T14:58:46.014Z,43.53
2019-02-16T15:00:49.769Z,43.97
2019-02-16T15:02:53.492Z,49.10
2019-02-16T15:04:57.170Z,46.97
2019-02-16T15:07:00.882Z,46.17
2019-02-16T15:09:06.204Z,44.27
2019-02-16T15:11:09.897Z,41.37
2019-02-16T15:13:13.679Z,40.27
2019-02-16T15:15:17.349Z,42.80
2019-02-16T15:17:21.018Z,45.00
2019-02-16T15:19:25.799Z,39.93
2019-02-16T15:21:30.426Z,43.93
2019-02-16T15:23:34.140Z,45.13
2019-02-16T15:25:37.810Z,42.23
2019-02-16T15:27:41.560Z,46.40
2019-02-16T15:29:45.215Z,43.37
2019-02-16T15:31:48.935Z,42.27
2019-02-16T15:33:52.643Z,44.73
2019-02-16T15:35:56.305Z,42.47
2019-02-16T15:38:00.147Z,42.10
2019-02-16T15:40:04.166Z,52.27
2019-02-16T15:42:08.002Z,38.33
2019-02-16T15:44:11.675Z,45.93
2019-02-16T15:46:15.338Z,43.97
2019-02-16T15:48:19.024Z,51.67
2019-02-16T15:50:22.685Z,49.70
2019-02-16T15:52:26.375Z,43.67
2019-02-16T15:54:30.086Z,44.07
2019-02-16T15:56:33.770Z,38.67
2019-02-16T15:58:37.564Z,44.20
2019-02-16T16:00:41.225Z,43.77
2019-02-16T16:02:45.015Z,52.30
2019-02-16T16:04:48.675Z,45.60
2019-02-16T16:06:52.337Z,46.00
2019-02-16T16:09:03.450Z,47.30
2019-02-16T16:11:24.907Z,46.87
2019-02-16T16:13:46.321Z,48.10
2019-02-16T16:16:03.621Z,56.03
2019-02-16T16:18:14.558Z,53.40
2019-02-16T16:20:19.822Z,46.77
2019-02-16T16:22:34.152Z,45.50
2019-02-16T16:24:54.328Z,43.30
2019-02-16T16:27:02.354Z,58.33
2019-02-16T16:29:10.495Z,54.20
2019-02-16T16:31:24.662Z,56.03
2019-02-16T16:33:29.932Z,51.73
2019-02-16T16:35:35.206Z,52.27
2019-02-16T16:37:40.457Z,50.63
2019-02-16T16:39:57.608Z,58.00
2019-02-16T16:42:05.584Z,50.60
2019-02-16T16:44:10.876Z,49.23
2019-02-16T16:46:28.422Z,51.93
2019-02-16T16:48:47.793Z,55.43
2019-02-16T16:51:08.870Z,46.90
2019-02-16T16:53:14.125Z,47.47
2019-02-16T16:55:22.192Z,42.73
2019-02-16T16:57:27.421Z,39.27
2019-02-16T16:59:32.675Z,42.67
2019-02-16T17:01:40.726Z,44.07
2019-02-16T17:03:45.970Z,44.00
2019-02-16T17:05:51.244Z,45.87
2019-02-16T17:08:05.387Z,42.33
2019-02-16T17:10:13.636Z,41.83
2019-02-16T17:12:34.965Z,47.17
2019-02-16T17:14:40.387Z,50.90
2019-02-16T17:16:45.649Z,43.23
2019-02-16T17:18:53.725Z,43.93
2019-02-16T17:20:59.039Z,40.77
2019-02-16T17:23:19.198Z,45.17
2019-02-16T17:25:27.110Z,41.70
2019-02-16T17:27:32.462Z,40.53
2019-02-16T17:29:52.866Z,40.03
2019-02-16T17:32:03.809Z,47.53
2019-02-16T17:34:14.600Z,40.50
2019-02-16T17:36:19.872Z,39.83
2019-02-16T17:38:25.261Z,41.10
2019-02-16T17:40:30.502Z,39.83
2019-02-16T17:42:41.842Z,39.63
2019-02-16T17:45:03.216Z,44.67
2019-02-16T17:47:24.925Z,44.57
2019-02-16T17:49:30.171Z,41.30
2019-02-16T17:51:41.770Z,38.57
2019-02-16T17:53:47.262Z,41.87
2019-02-16T17:56:10.777Z,41.27
2019-02-16T17:58:16.038Z,41.97
2019-02-16T18:00:27.239Z,46.37
2019-02-16T18:02:35.113Z,42.20
2019-02-16T18:04:56.416Z,136.73
2019-02-16T18:07:04.588Z,460.40
2019-02-16T18:09:09.848Z,108.03
2019-02-16T18:11:20.930Z,50.83
2019-02-16T18:13:26.198Z,52.07
2019-02-16T18:15:40.138Z,49.50
2019-02-16T18:17:45.384Z,47.30
2019-02-16T18:19:50.648Z,41.50
2019-02-16T18:21:55.886Z,51.43
2019-02-16T18:24:07.253Z,48.00
2019-02-16T18:26:21.086Z,50.43
2019-02-16T18:28:29.073Z,44.47
2019-02-16T18:30:34.307Z,44.77
2019-02-16T18:32:45.440Z,43.60
2019-02-16T18:34:53.586Z,45.87
2019-02-16T18:37:04.845Z,42.67
2019-02-16T18:39:16.077Z,53.00
2019-02-16T18:41:21.328Z,50.60
2019-02-16T18:43:32.345Z,60.23
2019-02-16T18:45:53.928Z,81.67
2019-02-16T18:48:11.289Z,88.17
2019-02-16T18:50:25.527Z,81.93
2019-02-16T18:52:36.655Z,76.90
2019-02-16T18:54:50.968Z,71.67
2019-02-16T18:57:12.298Z,67.20
2019-02-16T18:59:26.585Z,83.93
2019-02-16T19:01:44.065Z,85.03
2019-02-16T19:03:52.283Z,79.87
2019-02-16T19:05:57.607Z,74.33
2019-02-16T19:08:02.911Z,79.23
2019-02-16T19:10:20.575Z,67.27
2019-02-16T19:12:28.538Z,67.83
2019-02-16T19:14:33.780Z,66.47
2019-02-16T19:16:54.015Z,66.10
2019-02-16T19:19:05.139Z,48.90
2019-02-16T19:21:16.194Z,49.00
2019-02-16T19:23:21.440Z,50.57
2019-02-16T19:25:32.446Z,54.67
2019-02-16T19:27:43.373Z,50.17
2019-02-16T19:29:48.605Z,63.97
2019-02-16T19:31:59.459Z,58.77
2019-02-16T19:34:21.061Z,55.17
2019-02-16T19:36:26.342Z,53.23
2019-02-16T19:38:34.363Z,52.07
2019-02-16T19:40:39.590Z,54.13
2019-02-16T19:42:59.890Z,53.90
2019-02-16T19:45:17.507Z,54.87
2019-02-16T19:47:40.859Z,47.47
2019-02-16T19:49:58.084Z,50.20
2019-02-16T19:52:06.022Z,46.13
2019-02-16T19:54:16.962Z,53.07
2019-02-16T19:56:24.690Z,51.00
2019-02-16T19:58:36.003Z,46.87
2019-02-16T20:00:41.322Z,47.17
2019-02-16T20:02:46.603Z,49.60
2019-02-16T20:05:07.009Z,54.10
2019-02-16T20:07:28.503Z,50.47
2019-02-16T20:09:34.019Z,49.90
2019-02-16T20:11:51.355Z,50.27
2019-02-16T20:13:59.070Z,53.10
2019-02-16T20:16:10.199Z,49.93
2019-02-16T20:18:21.460Z,58.17
2019-02-16T20:20:26.722Z,53.47
2019-02-16T20:22:46.878Z,52.67
2019-02-16T20:24:52.157Z,51.07
2019-02-16T20:27:03.301Z,53.53
2019-02-16T20:29:14.375Z,58.23
2019-02-16T20:31:25.441Z,64.00
2019-02-16T20:33:36.432Z,50.13
2019-02-16T20:35:41.763Z,52.30
2019-02-16T20:38:03.413Z,54.17
2019-02-16T20:40:21.178Z,57.10
2019-02-16T20:42:26.461Z,59.13
2019-02-16T20:44:40.548Z,57.77
2019-02-16T20:46:48.239Z,59.43
2019-02-16T20:49:11.418Z,59.27
2019-02-16T20:51:22.558Z,55.50
2019-02-16T20:53:39.914Z,51.13
2019-02-16T20:55:51.046Z,52.63
2019-02-16T20:57:56.295Z,49.13
2019-02-16T21:00:01.631Z,48.23
2019-02-16T21:02:18.791Z,50.00
2019-02-16T21:04:36.534Z,55.10
2019-02-16T21:06:53.977Z,55.13
2019-02-16T21:09:05.139Z,58.83
2019-02-16T21:11:10.524Z,48.50
2019-02-16T21:13:18.779Z,61.93
2019-02-16T21:15:29.532Z,53.03
2019-02-16T21:17:34.788Z,61.97
2019-02-16T21:19:51.858Z,59.90
2019-02-16T21:22:09.067Z,57.83
2019-02-16T21:24:14.306Z,52.47
2019-02-16T21:26:22.065Z,54.27
2019-02-16T21:28:27.303Z,47.83
2019-02-16T21:30:32.552Z,51.07
2019-02-16T21:32:49.836Z,51.37
2019-02-16T21:34:55.081Z,48.43
2019-02-16T21:37:00.351Z,52.70
2019-02-16T21:39:06.674Z,47.97
2019-02-16T21:41:11.901Z,49.87
2019-02-16T21:43:35.506Z,51.53
2019-02-16T21:45:40.782Z,51.90
2019-02-16T21:48:04.003Z,49.77
2019-02-16T21:50:16.475Z,50.27
2019-02-16T21:52:36.492Z,56.23
2019-02-16T21:54:58.108Z,57.10
2019-02-16T21:57:03.331Z,51.63
2019-02-16T21:59:23.787Z,54.63
2019-02-16T22:01:37.970Z,60.77
2019-02-16T22:03:48.926Z,55.50
2019-02-16T22:05:57.028Z,59.47
2019-02-16T22:08:05.190Z,58.90
2019-02-16T22:10:10.950Z,60.53
2019-02-16T22:12:16.184Z,60.00
2019-02-16T22:14:19.948Z,54.17
2019-02-16T22:16:23.595Z,51.93
2019-02-16T22:18:27.325Z,52.30
2019-02-16T22:20:31.052Z,52.27
2019-02-16T22:22:34.719Z,52.13
2019-02-16T22:24:38.389Z,49.90
2019-02-16T22:26:42.065Z,49.87
2019-02-16T22:28:45.806Z,53.63
2019-02-16T22:30:49.478Z,51.03
2019-02-16T22:32:53.146Z,54.53
2019-02-16T22:34:56.843Z,51.37
2019-02-16T22:37:00.515Z,49.53
2019-02-16T22:39:04.924Z,49.50
2019-02-16T22:41:08.594Z,51.50
2019-02-16T22:43:12.248Z,49.43
2019-02-16T22:45:16.001Z,50.03
2019-02-16T22:47:19.669Z,51.37
2019-02-16T22:49:23.353Z,47.10
2019-02-16T22:51:27.026Z,50.90
2019-02-16T22:53:30.786Z,49.37
2019-02-16T22:55:34.487Z,52.10
2019-02-16T22:57:38.263Z,53.70
2019-02-16T22:59:41.998Z,55.60
2019-02-16T23:01:45.677Z,48.30
2019-02-16T23:03:49.355Z,51.17
2019-02-16T23:05:53.142Z,49.43
2019-02-16T23:07:56.838Z,51.50
2019-02-16T23:10:00.850Z,53.00
2019-02-16T23:12:06.003Z,49.40
2019-02-16T23:14:09.708Z,52.63
2019-02-16T23:16:13.398Z,52.70
2019-02-16T23:18:17.170Z,53.20
2019-02-16T23:20:20.850Z,53.07
2019-02-16T23:22:24.538Z,55.10
2019-02-16T23:24:28.276Z,56.90
2019-02-16T23:26:31.973Z,54.80
2019-02-16T23:28:38.813Z,52.10
2019-02-16T23:30:41.291Z,56.43
2019-02-16T23:32:44.945Z,70.63
2019-02-16T23:34:48.623Z,66.27
2019-02-16T23:36:52.430Z,57.60
2019-02-16T23:38:56.093Z,69.13
2019-02-16T23:40:59.802Z,67.77
2019-02-16T23:43:03.466Z,70.53
2019-02-16T23:45:09.128Z,66.17
2019-02-16T23:47:12.804Z,61.40
2019-02-16T23:49:16.786Z,59.00
2019-02-16T23:51:20.478Z,51.77
2019-02-16T23:53:24.139Z,50.43
2019-02-16T23:55:27.918Z,48.23
2019-02-16T23:57:31.609Z,48.77
2019-02-16T23:59:35.283Z,48.10
